sensor_id;sensor_type;location;lat;lon;timestamp;pressure;altitude;pressure_sealevel;temperature;humidity
5996;BME280;3026;53.612;7.278;2023-03-01T00:01:40;103175.75;;;0.42;100.00
5996;BME280;3026;53.612;7.278;2023-03-01T00:04:07;103166.88;;;0.40;100.00
5996;BME280;3026;53.612;7.278;2023-03-01T00:06:34;103175.69;;;0.43;100.00
5996;BME280;3026;53.612;7.278;2023-03-01T00:09:02;103176.50;;;0.45;100.00
5996;BME280;3026;53.612;7.278;2023-03-01T00:11:31;103182.81;;;0.44;100.00
5996;BME280;3026;53.612;7.278;2023-03-01T00:14:00;103184.69;;;0.42;100.00
5996;BME280;3026;53.612;7.278;2023-03-01T00:16:29;103182.91;;;0.41;100.00
5996;BME280;3026;53.612;7.278;2023-03-01T00:18:57;103186.53;;;0.40;100.00
5996;BME280;3026;53.612;7.278;2023-03-01T00:21:25;103177.66;;;0.38;100.00
5996;BME280;3026;53.612;7.278;2023-03-01T00:23:52;103184.78;;;0.39;100.00
5996;BME280;3026;53.612;7.278;2023-03-01T00:26:22;103184.00;;;0.36;100.00
5996;BME280;3026;53.612;7.278;2023-03-01T00:28:49;103172.47;;;0.32;100.00
5996;BME280;3026;53.612;7.278;2023-03-01T00:31:18;103177.84;;;0.32;100.00
5996;BME280;3026;53.612;7.278;2023-03-01T00:33:45;103181.47;;;0.31;100.00
5996;BME280;3026;53.612;7.278;2023-03-01T00:36:14;103176.19;;;0.28;100.00
5996;BME280;3026;53.612;7.278;2023-03-01T00:38:43;103188.59;;;0.32;100.00
5996;BME280;3026;53.612;7.278;2023-03-01T00:41:11;103178.84;;;0.29;100.00
5996;BME280;3026;53.612;7.278;2023-03-01T00:43:41;103176.31;;;0.25;100.00
5996;BME280;3026;53.612;7.278;2023-03-01T00:46:10;103178.13;;;0.23;100.00
5996;BME280;3026;53.612;7.278;2023-03-01T00:48:37;103178.34;;;0.17;100.00
5996;BME280;3026;53.612;7.278;2023-03-01T00:51:05;103173.09;;;0.14;100.00
5996;BME280;3026;53.612;7.278;2023-03-01T00:53:32;103175.81;;;0.12;100.00
5996;BME280;3026;53.612;7.278;2023-03-01T00:56:00;103176.69;;;0.13;100.00
5996;BME280;3026;53.612;7.278;2023-03-01T00:58:27;103160.78;;;0.07;100.00
5996;BME280;3026;53.612;7.278;2023-03-01T01:00:56;103160.63;;;0.11;100.00
5996;BME280;3026;53.612;7.278;2023-03-01T01:03:23;103164.28;;;0.09;100.00
5996;BME280;3026;53.612;7.278;2023-03-01T01:05:50;103162.53;;;0.08;100.00
5996;BME280;3026;53.612;7.278;2023-03-01T01:08:17;103161.59;;;0.09;100.00
5996;BME280;3026;53.612;7.278;2023-03-01T01:10:44;103160.78;;;0.07;100.00
5996;BME280;3026;53.612;7.278;2023-03-01T01:13:11;103168.84;;;0.07;100.00
5996;BME280;3026;53.612;7.278;2023-03-01T01:15:38;103154.69;;;0.02;100.00
5996;BME280;3026;53.612;7.278;2023-03-01T01:18:07;103161.00;;;0.01;100.00
5996;BME280;3026;53.612;7.278;2023-03-01T01:20:35;103157.44;;;-0.02;100.00
5996;BME280;3026;53.612;7.278;2023-03-01T01:23:05;103147.59;;;-0.01;100.00
5996;BME280;3026;53.612;7.278;2023-03-01T01:25:34;103153.94;;;-0.04;100.00
5996;BME280;3026;53.612;7.278;2023-03-01T01:28:01;103151.38;;;-0.07;100.00
5996;BME280;3026;53.612;7.278;2023-03-01T01:30:28;103141.69;;;-0.11;100.00
5996;BME280;3026;53.612;7.278;2023-03-01T01:32:54;103148.84;;;-0.11;100.00
5996;BME280;3026;53.612;7.278;2023-03-01T01:35:23;103148.03;;;-0.15;100.00
5996;BME280;3026;53.612;7.278;2023-03-01T01:37:49;103148.88;;;-0.13;100.00
5996;BME280;3026;53.612;7.278;2023-03-01T01:40:16;103141.75;;;-0.14;100.00
5996;BME280;3026;53.612;7.278;2023-03-01T01:42:43;103136.38;;;-0.14;100.00
5996;BME280;3026;53.612;7.278;2023-03-01T01:45:30;103131.94;;;-0.15;100.00
5996;BME280;3026;53.612;7.278;2023-03-01T01:48:00;103136.38;;;-0.14;100.00
5996;BME280;3026;53.612;7.278;2023-03-01T01:50:31;103122.97;;;-0.14;100.00
5996;BME280;3026;53.612;7.278;2023-03-01T01:53:06;103119.38;;;-0.13;100.00
5996;BME280;3026;53.612;7.278;2023-03-01T01:55:37;103114.03;;;-0.14;100.00
5996;BME280;3026;53.612;7.278;2023-03-01T01:58:09;103104.31;;;-0.17;100.00
5996;BME280;3026;53.612;7.278;2023-03-01T02:00:38;103104.47;;;-0.21;100.00
5996;BME280;3026;53.612;7.278;2023-03-01T02:03:09;103106.28;;;-0.22;100.00
5996;BME280;3026;53.612;7.278;2023-03-01T02:05:41;103099.16;;;-0.23;100.00
5996;BME280;3026;53.612;7.278;2023-03-01T02:08:11;103100.31;;;-0.32;100.00
5996;BME280;3026;53.612;7.278;2023-03-01T02:10:39;103093.38;;;-0.39;100.00
5996;BME280;3026;53.612;7.278;2023-03-01T02:13:07;103095.06;;;-0.36;100.00
5996;BME280;3026;53.612;7.278;2023-03-01T02:15:36;103091.50;;;-0.37;100.00
5996;BME280;3026;53.612;7.278;2023-03-01T02:18:05;103082.69;;;-0.40;100.00
5996;BME280;3026;53.612;7.278;2023-03-01T02:20:36;103092.50;;;-0.39;100.00
5996;BME280;3026;53.612;7.278;2023-03-01T02:23:08;103090.63;;;-0.37;100.00
5996;BME280;3026;53.612;7.278;2023-03-01T02:25:41;103079.13;;;-0.41;100.00
5996;BME280;3026;53.612;7.278;2023-03-01T02:28:23;103080.00;;;-0.40;100.00
5996;BME280;3026;53.612;7.278;2023-03-01T02:30:50;103084.66;;;-0.45;100.00
5996;BME280;3026;53.612;7.278;2023-03-01T02:33:36;103087.34;;;-0.45;100.00
5996;BME280;3026;53.612;7.278;2023-03-01T02:36:06;103080.28;;;-0.49;100.00
5996;BME280;3026;53.612;7.278;2023-03-01T02:38:35;103082.16;;;-0.51;100.00
5996;BME280;3026;53.612;7.278;2023-03-01T02:41:03;103078.63;;;-0.53;100.00
5996;BME280;3026;53.612;7.278;2023-03-01T02:43:32;103064.41;;;-0.55;100.00
5996;BME280;3026;53.612;7.278;2023-03-01T02:46:05;103073.28;;;-0.53;100.00
5996;BME280;3026;53.612;7.278;2023-03-01T02:48:41;103068.03;;;-0.58;100.00
5996;BME280;3026;53.612;7.278;2023-03-01T02:51:16;103062.66;;;-0.56;100.00
5996;BME280;3026;53.612;7.278;2023-03-01T02:53:50;103068.84;;;-0.54;100.00
5996;BME280;3026;53.612;7.278;2023-03-01T02:56:20;103071.53;;;-0.54;100.00
5996;BME280;3026;53.612;7.278;2023-03-01T02:58:48;103066.16;;;-0.54;100.00
5996;BME280;3026;53.612;7.278;2023-03-01T03:01:17;103072.31;;;-0.51;100.00
5996;BME280;3026;53.612;7.278;2023-03-01T03:03:44;103066.06;;;-0.51;100.00
5996;BME280;3026;53.612;7.278;2023-03-01T03:06:11;103072.31;;;-0.51;100.00
5996;BME280;3026;53.612;7.278;2023-03-01T03:08:38;103077.66;;;-0.51;100.00
5996;BME280;3026;53.612;7.278;2023-03-01T03:11:05;103073.28;;;-0.53;100.00
5996;BME280;3026;53.612;7.278;2023-03-01T03:13:32;103078.53;;;-0.50;100.00
5996;BME280;3026;53.612;7.278;2023-03-01T03:16:02;103080.28;;;-0.49;100.00
5996;BME280;3026;53.612;7.278;2023-03-01T03:18:29;103077.56;;;-0.48;100.00
5996;BME280;3026;53.612;7.278;2023-03-01T03:20:56;103065.97;;;-0.48;100.00
5996;BME280;3026;53.612;7.278;2023-03-01T03:23:23;103061.41;;;-0.45;100.00
5996;BME280;3026;53.612;7.278;2023-03-01T03:25:51;103060.44;;;-0.42;100.00
5996;BME280;3026;53.612;7.278;2023-03-01T03:28:17;103066.72;;;-0.43;100.00
5996;BME280;3026;53.612;7.278;2023-03-01T03:30:45;103066.66;;;-0.42;100.00
5996;BME280;3026;53.612;7.278;2023-03-01T03:33:13;103060.44;;;-0.42;100.00
5996;BME280;3026;53.612;7.278;2023-03-01T03:35:42;103071.16;;;-0.42;100.00
5996;BME280;3026;53.612;7.278;2023-03-01T03:38:11;103073.94;;;-0.47;100.00
5996;BME280;3026;53.612;7.278;2023-03-01T03:40:44;103071.25;;;-0.45;100.00
5996;BME280;3026;53.612;7.278;2023-03-01T03:43:13;103076.63;;;-0.45;100.00
5996;BME280;3026;53.612;7.278;2023-03-01T03:45:40;103080.22;;;-0.46;100.00
5996;BME280;3026;53.612;7.278;2023-03-01T03:48:08;103082.91;;;-0.46;100.00
5996;BME280;3026;53.612;7.278;2023-03-01T03:50:37;103073.94;;;-0.47;100.00
5996;BME280;3026;53.612;7.278;2023-03-01T03:53:06;103080.38;;;-0.52;100.00
5996;BME280;3026;53.612;7.278;2023-03-01T03:55:34;103078.63;;;-0.53;100.00
5996;BME280;3026;53.612;7.278;2023-03-01T03:58:05;103076.88;;;-0.54;100.00
5996;BME280;3026;53.612;7.278;2023-03-01T04:00:35;103080.50;;;-0.55;100.00
5996;BME280;3026;53.612;7.278;2023-03-01T04:03:02;103078.81;;;-0.60;100.00
5996;BME280;3026;53.612;7.278;2023-03-01T04:05:32;103073.44;;;-0.60;100.00
5996;BME280;3026;53.612;7.278;2023-03-01T04:08:00;103067.25;;;-0.62;100.00
5996;BME280;3026;53.612;7.278;2023-03-01T04:10:33;103059.28;;;-0.63;100.00
5996;BME280;3026;53.612;7.278;2023-03-01T04:13:01;103055.00;;;-0.69;100.00
5996;BME280;3026;53.612;7.278;2023-03-01T04:15:28;103057.69;;;-0.69;100.00
5996;BME280;3026;53.612;7.278;2023-03-01T04:17:55;103061.25;;;-0.70;100.00
5996;BME280;3026;53.612;7.278;2023-03-01T04:20:23;103054.13;;;-0.71;100.00
5996;BME280;3026;53.612;7.278;2023-03-01T04:22:52;103045.28;;;-0.73;100.00
5996;BME280;3026;53.612;7.278;2023-03-01T04:25:20;103048.88;;;-0.74;100.00
5996;BME280;3026;53.612;7.278;2023-03-01T04:27:47;103048.06;;;-0.76;100.00
5996;BME280;3026;53.612;7.278;2023-03-01T04:30:14;103049.91;;;-0.78;100.00
5996;BME280;3026;53.612;7.278;2023-03-01T04:32:41;103033.94;;;-0.81;100.00
5996;BME280;3026;53.612;7.278;2023-03-01T04:35:09;103029.56;;;-0.85;100.00
5996;BME280;3026;53.612;7.278;2023-03-01T04:37:36;103043.78;;;-0.83;100.00
5996;BME280;3026;53.612;7.278;2023-03-01T04:40:03;103045.66;;;-0.85;100.00
5996;BME280;3026;53.612;7.278;2023-03-01T04:42:39;103040.28;;;-0.85;100.00
5996;BME280;3026;53.612;7.278;2023-03-01T04:45:08;103045.66;;;-0.85;100.00
5996;BME280;3026;53.612;7.278;2023-03-01T04:47:39;103025.28;;;-0.91;100.00
5996;BME280;3026;53.612;7.278;2023-03-01T04:50:08;103030.53;;;-0.88;100.00
5996;BME280;3026;53.612;7.278;2023-03-01T04:52:35;103029.78;;;-0.91;100.00
5996;BME280;3026;53.612;7.278;2023-03-01T04:55:05;103021.78;;;-0.93;100.00
5996;BME280;3026;53.612;7.278;2023-03-01T04:57:32;103018.19;;;-0.93;100.00
5996;BME280;3026;53.612;7.278;2023-03-01T05:00:00;103011.97;;;-0.94;100.00
5996;BME280;3026;53.612;7.278;2023-03-01T05:02:46;103010.16;;;-0.93;100.00
5996;BME280;3026;53.612;7.278;2023-03-01T05:05:20;103003.16;;;-0.97;100.00
5996;BME280;3026;53.612;7.278;2023-03-01T05:07:51;103010.25;;;-0.96;100.00
5996;BME280;3026;53.612;7.278;2023-03-01T05:10:17;103005.72;;;-0.94;100.00
5996;BME280;3026;53.612;7.278;2023-03-01T05:12:44;103019.06;;;-0.91;100.00
5996;BME280;3026;53.612;7.278;2023-03-01T05:15:13;103011.94;;;-0.92;100.00
5996;BME280;3026;53.612;7.278;2023-03-01T05:17:40;103004.91;;;-0.96;100.00
5996;BME280;3026;53.612;7.278;2023-03-01T05:20:08;102997.91;;;-1.00;100.00
5996;BME280;3026;53.612;7.278;2023-03-01T05:22:36;102993.47;;;-1.01;100.00
5996;BME280;3026;53.612;7.278;2023-03-01T05:25:03;102997.91;;;-1.00;100.00
5996;BME280;3026;53.612;7.278;2023-03-01T05:27:30;102984.59;;;-1.03;100.00
5996;BME280;3026;53.612;7.278;2023-03-01T05:29:57;102982.88;;;-1.06;100.00
5996;BME280;3026;53.612;7.278;2023-03-01T05:32:28;102986.53;;;-1.08;100.00
5996;BME280;3026;53.612;7.278;2023-03-01T05:34:57;102983.94;;;-1.11;100.00
5996;BME280;3026;53.612;7.278;2023-03-01T05:37:24;102980.50;;;-1.17;100.00
5996;BME280;3026;53.612;7.278;2023-03-01T05:39:51;102987.56;;;-1.12;100.00
5996;BME280;3026;53.612;7.278;2023-03-01T05:42:17;102984.13;;;-1.18;100.00
5996;BME280;3026;53.612;7.278;2023-03-01T05:44:44;102984.97;;;-1.15;100.00
5996;BME280;3026;53.612;7.278;2023-03-01T05:47:11;102976.94;;;-1.15;100.00
5996;BME280;3026;53.612;7.278;2023-03-01T05:49:39;102978.72;;;-1.16;100.00
5996;BME280;3026;53.612;7.278;2023-03-01T05:52:06;102976.09;;;-1.18;100.00
5996;BME280;3026;53.612;7.278;2023-03-01T05:54:33;102980.56;;;-1.18;100.00
5996;BME280;3026;53.612;7.278;2023-03-01T05:57:00;102979.78;;;-1.22;100.00
5996;BME280;3026;53.612;7.278;2023-03-01T05:59:27;102975.34;;;-1.23;100.00
5996;BME280;3026;53.612;7.278;2023-03-01T06:01:54;102967.41;;;-1.26;100.00
5996;BME280;3026;53.612;7.278;2023-03-01T06:04:21;102978.97;;;-1.24;100.00
5996;BME280;3026;53.612;7.278;2023-03-01T06:06:49;102974.53;;;-1.25;100.00
5996;BME280;3026;53.612;7.278;2023-03-01T06:09:16;102973.69;;;-1.27;100.00
5996;BME280;3026;53.612;7.278;2023-03-01T06:11:43;102986.22;;;-1.29;100.00
5996;BME280;3026;53.612;7.278;2023-03-01T06:14:10;102985.41;;;-1.31;100.00
5996;BME280;3026;53.612;7.278;2023-03-01T06:16:40;102990.69;;;-1.29;100.00
5996;BME280;3026;53.612;7.278;2023-03-01T06:19:06;102980.97;;;-1.32;100.00
5996;BME280;3026;53.612;7.278;2023-03-01T06:21:33;102980.97;;;-1.32;100.00
5996;BME280;3026;53.612;7.278;2023-03-01T06:24:02;102984.56;;;-1.33;100.00
5996;BME280;3026;53.612;7.278;2023-03-01T06:26:29;102991.66;;;-1.32;100.00
5996;BME280;3026;53.612;7.278;2023-03-01T06:28:55;102996.16;;;-1.32;100.00
5996;BME280;3026;53.612;7.278;2023-03-01T06:31:22;102997.03;;;-1.32;100.00
5996;BME280;3026;53.612;7.278;2023-03-01T06:33:49;103011.34;;;-1.33;100.00
5996;BME280;3026;53.612;7.278;2023-03-01T06:36:16;103007.91;;;-1.38;100.00
5996;BME280;3026;53.612;7.278;2023-03-01T06:38:46;103006.06;;;-1.36;100.00
5996;BME280;3026;53.612;7.278;2023-03-01T06:41:14;103006.16;;;-1.39;100.00
5996;BME280;3026;53.612;7.278;2023-03-01T06:43:41;103006.06;;;-1.36;100.00
5996;BME280;3026;53.612;7.278;2023-03-01T06:46:08;103009.75;;;-1.40;100.00
5996;BME280;3026;53.612;7.278;2023-03-01T06:48:35;103016.88;;;-1.39;100.00
5996;BME280;3026;53.612;7.278;2023-03-01T06:51:03;103023.00;;;-1.35;100.00
5996;BME280;3026;53.612;7.278;2023-03-01T06:53:30;103018.53;;;-1.35;100.00
5996;BME280;3026;53.612;7.278;2023-03-01T06:55:57;103025.63;;;-1.34;100.00
5996;BME280;3026;53.612;7.278;2023-03-01T06:58:26;103011.34;;;-1.33;100.00
5996;BME280;3026;53.612;7.278;2023-03-01T07:00:53;103028.22;;;-1.31;100.00
5996;BME280;3026;53.612;7.278;2023-03-01T07:03:20;103020.19;;;-1.31;100.00
5996;BME280;3026;53.612;7.278;2023-03-01T07:05:48;103029.06;;;-1.29;100.00
5996;BME280;3026;53.612;7.278;2023-03-01T07:08:17;103026.38;;;-1.29;100.00
5996;BME280;3026;53.612;7.278;2023-03-01T07:10:44;103017.53;;;-1.31;100.00
5996;BME280;3026;53.612;7.278;2023-03-01T07:13:10;103029.00;;;-1.26;100.00
5996;BME280;3026;53.612;7.278;2023-03-01T07:15:40;103022.66;;;-1.23;100.00
5996;BME280;3026;53.612;7.278;2023-03-01T07:18:07;103025.19;;;-1.19;100.00
5996;BME280;3026;53.612;7.278;2023-03-01T07:20:34;103027.81;;;-1.15;100.00
5996;BME280;3026;53.612;7.278;2023-03-01T07:23:01;103017.94;;;-1.13;100.00
5996;BME280;3026;53.612;7.278;2023-03-01T07:25:28;103015.97;;;-1.08;100.00
5996;BME280;3026;53.612;7.278;2023-03-01T07:27:55;103015.88;;;-1.05;100.00
5996;BME280;3026;53.612;7.278;2023-03-01T07:30:22;103009.53;;;-1.01;100.00
5996;BME280;3026;53.612;7.278;2023-03-01T07:32:52;103013.88;;;-0.97;100.00
5996;BME280;3026;53.612;7.278;2023-03-01T07:35:19;103018.19;;;-0.92;100.00
5996;BME280;3026;53.612;7.278;2023-03-01T07:37:46;103001.13;;;-0.89;100.00
5996;BME280;3026;53.612;7.278;2023-03-01T07:40:13;103011.66;;;-0.83;100.00
5996;BME280;3026;53.612;7.278;2023-03-01T07:42:40;103004.47;;;-0.81;100.00
5996;BME280;3026;53.612;7.278;2023-03-01T07:45:08;103011.28;;;-0.71;100.00
5996;BME280;3026;53.612;7.278;2023-03-01T07:47:35;103011.19;;;-0.68;100.00
5996;BME280;3026;53.612;7.278;2023-03-01T07:50:04;103011.00;;;-0.62;100.00
5996;BME280;3026;53.612;7.278;2023-03-01T07:52:31;103005.53;;;-0.59;100.00
5996;BME280;3026;53.612;7.278;2023-03-01T07:54:58;103007.97;;;-0.51;100.00
5996;BME280;3026;53.612;7.278;2023-03-01T07:57:25;103009.63;;;-0.47;100.00
5996;BME280;3026;53.612;7.278;2023-03-01T07:59:51;103006.91;;;-0.45;100.00
5996;BME280;3026;53.612;7.278;2023-03-01T08:02:18;103008.06;;;-0.26;100.00
5996;BME280;3026;53.612;7.278;2023-03-01T08:04:45;103004.91;;;-0.12;100.00
5996;BME280;3026;53.612;7.278;2023-03-01T08:07:13;103011.66;;;0.01;100.00
5996;BME280;3026;53.612;7.278;2023-03-01T08:09:41;103007.75;;;0.10;100.00
5996;BME280;3026;53.612;7.278;2023-03-01T08:12:07;103008.50;;;0.15;100.00
5996;BME280;3026;53.612;7.278;2023-03-01T08:14:35;103013.56;;;0.24;100.00
5996;BME280;3026;53.612;7.278;2023-03-01T08:17:03;103003.34;;;0.34;100.00
5996;BME280;3026;53.612;7.278;2023-03-01T08:19:30;103009.16;;;0.46;100.00
5996;BME280;3026;53.612;7.278;2023-03-01T08:21:58;103002.59;;;0.55;100.00
5996;BME280;3026;53.612;7.278;2023-03-01T08:24:27;103004.69;;;0.72;100.00
5996;BME280;3026;53.612;7.278;2023-03-01T08:26:54;103010.41;;;0.86;100.00
5996;BME280;3026;53.612;7.278;2023-03-01T08:29:21;103007.13;;;1.01;100.00
5996;BME280;3026;53.612;7.278;2023-03-01T08:31:50;103009.34;;;1.13;100.00
5996;BME280;3026;53.612;7.278;2023-03-01T08:34:18;103000.72;;;1.29;100.00
5996;BME280;3026;53.612;7.278;2023-03-01T08:36:46;102999.84;;;1.50;100.00
5996;BME280;3026;53.612;7.278;2023-03-01T08:39:14;102996.34;;;1.70;100.00
5996;BME280;3026;53.612;7.278;2023-03-01T08:41:43;103004.47;;;1.90;100.00
5996;BME280;3026;53.612;7.278;2023-03-01T08:44:11;103001.81;;;2.11;100.00
5996;BME280;3026;53.612;7.278;2023-03-01T08:46:40;103001.78;;;2.32;100.00
5996;BME280;3026;53.612;7.278;2023-03-01T08:49:09;103002.69;;;2.52;100.00
5996;BME280;3026;53.612;7.278;2023-03-01T08:51:38;102999.06;;;2.73;100.00
5996;BME280;3026;53.612;7.278;2023-03-01T08:54:06;103005.28;;;2.94;100.00
5996;BME280;3026;53.612;7.278;2023-03-01T08:56:34;103003.53;;;3.12;100.00
5996;BME280;3026;53.612;7.278;2023-03-01T08:59:02;103000.78;;;3.32;100.00
5996;BME280;3026;53.612;7.278;2023-03-01T09:01:29;103002.38;;;3.55;100.00
5996;BME280;3026;53.612;7.278;2023-03-01T09:03:56;102997.03;;;3.72;100.00
5996;BME280;3026;53.612;7.278;2023-03-01T09:06:23;102994.78;;;3.99;100.00
5996;BME280;3026;53.612;7.278;2023-03-01T09:08:50;102998.75;;;4.27;100.00
5996;BME280;3026;53.612;7.278;2023-03-01T09:11:20;102994.25;;;4.45;100.00
5996;BME280;3026;53.612;7.278;2023-03-01T09:13:47;102995.25;;;4.77;100.00
5996;BME280;3026;53.612;7.278;2023-03-01T09:16:18;102987.63;;;5.16;100.00
5996;BME280;3026;53.612;7.278;2023-03-01T09:18:45;102998.31;;;5.51;100.00
5996;BME280;3026;53.612;7.278;2023-03-01T09:21:14;102990.59;;;5.75;100.00
5996;BME280;3026;53.612;7.278;2023-03-01T09:23:42;102996.69;;;6.10;100.00
5996;BME280;3026;53.612;7.278;2023-03-01T09:26:14;102994.66;;;6.43;100.00
5996;BME280;3026;53.612;7.278;2023-03-01T09:28:42;102993.88;;;6.71;100.00
5996;BME280;3026;53.612;7.278;2023-03-01T09:31:10;102988.81;;;6.65;100.00
5996;BME280;3026;53.612;7.278;2023-03-01T09:33:40;102993.19;;;6.96;100.00
5996;BME280;3026;53.612;7.278;2023-03-01T09:36:10;102984.28;;;7.09;100.00
5996;BME280;3026;53.612;7.278;2023-03-01T09:38:37;102982.53;;;7.22;100.00
5996;BME280;3026;53.612;7.278;2023-03-01T09:41:10;102987.91;;;7.36;100.00
5996;BME280;3026;53.612;7.278;2023-03-01T09:43:43;102992.94;;;7.56;100.00
5996;BME280;3026;53.612;7.278;2023-03-01T09:46:14;102995.38;;;7.74;100.00
5996;BME280;3026;53.612;7.278;2023-03-01T09:48:50;102986.09;;;7.78;100.00
5996;BME280;3026;53.612;7.278;2023-03-01T09:51:22;102983.91;;;7.83;100.00
5996;BME280;3026;53.612;7.278;2023-03-01T09:53:51;102983.91;;;7.83;100.00
5996;BME280;3026;53.612;7.278;2023-03-01T09:56:24;102995.50;;;7.99;100.00
5996;BME280;3026;53.612;7.278;2023-03-01T09:58:58;103006.00;;;8.18;100.00
5996;BME280;3026;53.612;7.278;2023-03-01T10:01:31;103004.56;;;8.52;100.00
5996;BME280;3026;53.612;7.278;2023-03-01T10:04:32;103014.47;;;8.66;100.00
5996;BME280;3026;53.612;7.278;2023-03-01T10:07:17;103015.06;;;8.96;100.00
5996;BME280;3026;53.612;7.278;2023-03-01T10:09:48;103006.88;;;8.84;100.00
5996;BME280;3026;53.612;7.278;2023-03-01T10:12:18;103015.91;;;8.71;100.00
5996;BME280;3026;53.612;7.278;2023-03-01T10:14:54;103015.03;;;8.58;100.00
5996;BME280;3026;53.612;7.278;2023-03-01T10:17:27;103006.06;;;8.43;100.00
5996;BME280;3026;53.612;7.278;2023-03-01T10:20:10;103007.28;;;8.12;100.00
5996;BME280;3026;53.612;7.278;2023-03-01T10:22:41;103003.34;;;8.04;100.00
5996;BME280;3026;53.612;7.278;2023-03-01T10:25:14;103000.72;;;8.02;100.00
5996;BME280;3026;53.612;7.278;2023-03-01T10:27:47;102997.47;;;8.10;100.00
5996;BME280;3026;53.612;7.278;2023-03-01T10:30:21;102998.47;;;8.22;100.00
5996;BME280;3026;53.612;7.278;2023-03-01T10:32:51;102995.88;;;8.20;100.00
5996;BME280;3026;53.612;7.278;2023-03-01T10:35:22;102998.16;;;8.13;100.00
5996;BME280;3026;53.612;7.278;2023-03-01T10:38:03;102987.06;;;8.16;100.00
5996;BME280;3026;53.612;7.278;2023-03-01T10:40:31;102998.84;;;8.30;100.00
5996;BME280;3026;53.612;7.278;2023-03-01T10:43:00;102988.13;;;8.41;100.00
5996;BME280;3026;53.612;7.278;2023-03-01T10:45:32;102979.59;;;8.33;100.00
5996;BME280;3026;53.612;7.278;2023-03-01T10:48:10;102980.66;;;8.17;100.00
5996;BME280;3026;53.612;7.278;2023-03-01T10:50:40;102978.63;;;7.94;100.00
5996;BME280;3026;53.612;7.278;2023-03-01T10:53:21;102970.19;;;7.72;100.00
5996;BME280;3026;53.612;7.278;2023-03-01T10:55:57;102968.44;;;7.71;100.00
5996;BME280;3026;53.612;7.278;2023-03-01T10:58:25;102969.44;;;8.09;100.00
5996;BME280;3026;53.612;7.278;2023-03-01T11:00:53;102974.38;;;8.30;100.00
5996;BME280;3026;53.612;7.278;2023-03-01T11:03:23;102982.53;;;8.30;100.00
5996;BME280;3026;53.612;7.278;2023-03-01T11:05:57;102962.53;;;8.31;100.00
5996;BME280;3026;53.612;7.278;2023-03-01T11:08:35;102971.28;;;8.36;100.00
5996;BME280;3026;53.612;7.278;2023-03-01T11:11:05;102975.75;;;8.37;100.00
5996;BME280;3026;53.612;7.278;2023-03-01T11:13:32;102969.91;;;8.29;100.00
5996;BME280;3026;53.612;7.278;2023-03-01T11:16:00;102968.19;;;8.28;100.00
5996;BME280;3026;53.612;7.278;2023-03-01T11:18:29;102966.84;;;8.20;100.00
5996;BME280;3026;53.612;7.278;2023-03-01T11:20:59;102961.84;;;8.14;100.00
5996;BME280;3026;53.612;7.278;2023-03-01T11:23:29;102960.13;;;8.13;100.00
5996;BME280;3026;53.612;7.278;2023-03-01T11:26:01;102951.38;;;8.08;100.00
5996;BME280;3026;53.612;7.278;2023-03-01T11:28:29;102954.50;;;7.89;100.00
5996;BME280;3026;53.612;7.278;2023-03-01T11:30:59;102964.34;;;7.78;100.00
5996;BME280;3026;53.612;7.278;2023-03-01T11:33:35;102963.22;;;7.68;100.00
5996;BME280;3026;53.612;7.278;2023-03-01T11:36:11;102972.53;;;7.64;100.00
5996;BME280;3026;53.612;7.278;2023-03-01T11:38:42;102961.91;;;7.87;100.00
5996;BME280;3026;53.612;7.278;2023-03-01T11:41:14;102963.94;;;8.24;100.00
5996;BME280;3026;53.612;7.278;2023-03-01T11:43:48;102972.69;;;8.54;100.00
5996;BME280;3026;53.612;7.278;2023-03-01T11:46:45;102963.88;;;8.89;100.00
5996;BME280;3026;53.612;7.278;2023-03-01T11:52:21;102960.19;;;9.15;100.00
5996;BME280;3026;53.612;7.278;2023-03-01T11:55:02;102956.00;;;9.22;100.00
5996;BME280;3026;53.612;7.278;2023-03-01T11:57:43;102959.03;;;9.30;100.00
5996;BME280;3026;53.612;7.278;2023-03-01T12:00:35;102958.03;;;9.68;100.00
5996;BME280;3026;53.612;7.278;2023-03-01T12:03:28;102956.03;;;10.18;100.00
5996;BME280;3026;53.612;7.278;2023-03-01T12:06:16;102948.72;;;10.65;100.00
5996;BME280;3026;53.612;7.278;2023-03-01T12:08:57;102951.88;;;10.94;100.00
5996;BME280;3026;53.612;7.278;2023-03-01T12:14:44;102942.81;;;10.71;100.00
5996;BME280;3026;53.612;7.278;2023-03-01T12:17:47;102941.31;;;10.67;100.00
5996;BME280;3026;53.612;7.278;2023-03-01T12:20:26;102932.25;;;10.55;100.00
5996;BME280;3026;53.612;7.278;2023-03-01T12:23:13;102941.00;;;10.36;100.00
5996;BME280;3026;53.612;7.278;2023-03-01T12:25:53;102932.47;;;10.17;100.00
5996;BME280;3026;53.612;7.278;2023-03-01T12:28:42;102934.47;;;10.15;100.00
5996;BME280;3026;53.612;7.278;2023-03-01T12:34:11;102925.94;;;10.19;100.00
5996;BME280;3026;53.612;7.278;2023-03-01T12:36:52;102922.78;;;10.02;100.00
5996;BME280;3026;53.612;7.278;2023-03-01T12:39:32;102911.16;;;10.11;100.00
5996;BME280;3026;53.612;7.278;2023-03-01T12:42:16;102918.81;;;10.41;100.00
5996;BME280;3026;53.612;7.278;2023-03-01T12:45:01;102903.56;;;10.38;100.00
5996;BME280;3026;53.612;7.278;2023-03-01T12:47:54;102917.50;;;10.69;100.00
5996;BME280;3026;53.612;7.278;2023-03-01T12:50:31;102908.31;;;10.92;100.00
5996;BME280;3026;53.612;7.278;2023-03-01T12:53:03;102904.09;;;10.88;100.00
5996;BME280;3026;53.612;7.278;2023-03-01T12:55:33;102900.13;;;10.81;100.00
5996;BME280;3026;53.612;7.278;2023-03-01T12:58:06;102907.81;;;10.76;100.00
5996;BME280;3026;53.612;7.278;2023-03-01T13:00:40;102897.16;;;10.73;100.00
5996;BME280;3026;53.612;7.278;2023-03-01T13:03:30;102899.88;;;10.84;100.00
5996;BME280;3026;53.612;7.278;2023-03-01T13:06:07;102889.09;;;10.94;100.00
5996;BME280;3026;53.612;7.278;2023-03-01T13:08:41;102873.94;;;11.01;100.00
5996;BME280;3026;53.612;7.278;2023-03-01T13:11:16;102877.72;;;11.32;100.00
5996;BME280;3026;53.612;7.278;2023-03-01T13:13:45;102874.97;;;11.43;100.00
5996;BME280;3026;53.612;7.278;2023-03-01T13:19:09;102877.97;;;11.40;100.00
5996;BME280;3026;53.612;7.278;2023-03-01T13:21:39;102874.97;;;11.43;100.00
5996;BME280;3026;53.612;7.278;2023-03-01T13:24:23;102868.91;;;11.72;100.00
5996;BME280;3026;53.612;7.278;2023-03-01T13:27:11;102857.44;;;11.78;100.00
5996;BME280;3026;53.612;7.278;2023-03-01T13:29:51;102869.94;;;11.91;100.00
5996;BME280;3026;53.612;7.278;2023-03-01T13:32:22;102869.44;;;12.18;100.00
5996;BME280;3026;53.612;7.278;2023-03-01T13:34:54;102864.41;;;12.23;100.00